createdAt,value
2022-12-11T00:01:17.705Z,-3.17
2022-12-11T00:03:44.498Z,-2.98
2022-12-11T00:06:14.266Z,-3.04
2022-12-11T00:08:40.873Z,-3.07
2022-12-11T00:11:16.465Z,-2.96
2022-12-11T00:13:43.579Z,-2.96
2022-12-11T00:16:10.068Z,-3.15
2022-12-11T00:18:36.660Z,-2.94
2022-12-11T00:21:05.669Z,-3.01
2022-12-11T00:23:32.264Z,-3.16
2022-12-11T00:25:58.734Z,-3.36
2022-12-11T00:28:25.233Z,-3.28
2022-12-11T00:30:51.804Z,-3.42
2022-12-11T00:33:18.287Z,-3.14
2022-12-11T00:35:46.434Z,-3.26
2022-12-11T00:38:18.566Z,-3.34
2022-12-11T00:40:45.087Z,-3.19
2022-12-11T00:43:12.074Z,-3.07
2022-12-11T00:45:41.311Z,-3.13
2022-12-11T00:48:08.955Z,-3.08
2022-12-11T00:50:36.367Z,-3.04
2022-12-11T00:53:04.602Z,-3.14
2022-12-11T00:55:31.854Z,-3.31
2022-12-11T00:57:58.388Z,-3.49
2022-12-11T01:00:25.075Z,-3.23
2022-12-11T01:02:51.594Z,-3.12
2022-12-11T01:05:18.344Z,-3.09
2022-12-11T01:07:44.874Z,-3.22
2022-12-11T01:10:25.518Z,-3.20
2022-12-11T01:13:01.650Z,-3.32
2022-12-11T01:15:41.822Z,-3.22
2022-12-11T01:18:10.352Z,-3.47
2022-12-11T01:20:39.523Z,-3.22
2022-12-11T01:23:06.794Z,-3.15
2022-12-11T01:25:35.847Z,-3.16
2022-12-11T01:28:02.308Z,-3.36
2022-12-11T01:30:28.845Z,-3.35
2022-12-11T01:32:55.417Z,-3.16
2022-12-11T01:35:22.042Z,-3.04
2022-12-11T01:37:48.953Z,-3.15
2022-12-11T01:40:18.202Z,-3.45
2022-12-11T01:42:44.986Z,-3.28
2022-12-11T01:45:26.747Z,-3.48
2022-12-11T01:48:00.798Z,-3.23
2022-12-11T01:50:28.729Z,-3.37
2022-12-11T01:52:55.197Z,-3.27
2022-12-11T01:55:21.878Z,-3.16
2022-12-11T01:57:50.863Z,-3.19
2022-12-11T02:00:18.075Z,-3.12
2022-12-11T02:02:44.996Z,-3.17
2022-12-11T02:09:50.428Z,-3.39
2022-12-11T02:12:29.048Z,-3.09
2022-12-11T02:15:28.083Z,-3.32
2022-12-11T02:18:10.541Z,-3.25
2022-12-11T02:20:55.059Z,-3.32
2022-12-11T02:23:58.931Z,-3.23
2022-12-11T02:26:34.775Z,-3.23
2022-12-11T02:29:05.333Z,-3.22
2022-12-11T02:32:24.333Z,-3.35
2022-12-11T02:35:23.645Z,-3.28
2022-12-11T02:38:05.986Z,-3.22
2022-12-11T02:40:36.839Z,-3.24
2022-12-11T02:43:08.390Z,-3.15
2022-12-11T02:45:35.333Z,-3.33
2022-12-11T02:48:05.738Z,-3.16
2022-12-11T02:50:36.065Z,-3.09
2022-12-11T02:53:04.750Z,-3.20
2022-12-11T02:55:33.567Z,-3.35
2022-12-11T02:58:05.614Z,-3.33
2022-12-11T03:00:32.166Z,-3.24
2022-12-11T03:02:58.909Z,-3.13
2022-12-11T03:05:27.164Z,-3.19
2022-12-11T03:07:53.758Z,-3.17
2022-12-11T03:10:20.505Z,-3.14
2022-12-11T03:12:53.591Z,-3.05
2022-12-11T03:15:24.036Z,-3.20
2022-12-11T03:18:05.861Z,-3.22
2022-12-11T03:20:35.439Z,-3.22
2022-12-11T03:23:25.043Z,-3.14
2022-12-11T03:25:58.409Z,-3.25
2022-12-11T03:28:50.421Z,-3.26
2022-12-11T03:31:50.549Z,-3.21
2022-12-11T03:34:27.870Z,-3.16
2022-12-11T03:36:56.829Z,-3.15
2022-12-11T03:39:30.649Z,-3.16
2022-12-11T03:41:57.929Z,-3.32
2022-12-11T03:44:24.923Z,-3.12
2022-12-11T03:46:53.787Z,-3.21
2022-12-11T03:49:26.659Z,-3.09
2022-12-11T03:51:56.608Z,-3.12
2022-12-11T03:54:24.093Z,-3.24
2022-12-11T03:56:56.759Z,-3.22
2022-12-11T03:59:23.517Z,-3.27
2022-12-11T04:01:50.842Z,-3.26
2022-12-11T04:04:17.604Z,-3.14
2022-12-11T04:06:44.379Z,-3.17
2022-12-11T04:09:11.275Z,-3.12
2022-12-11T04:11:38.219Z,-3.18
2022-12-11T04:14:28.886Z,-3.21
2022-12-11T04:16:56.603Z,-3.23
2022-12-11T04:19:42.669Z,-3.15
2022-12-11T04:22:32.407Z,-3.17
2022-12-11T04:24:59.512Z,-3.10
2022-12-11T04:27:47.264Z,-3.18
2022-12-11T04:30:16.562Z,-3.20
2022-12-11T04:32:43.268Z,-3.10
2022-12-11T04:35:11.393Z,-3.15
2022-12-11T04:37:38.095Z,-3.28
2022-12-11T04:40:06.709Z,-3.13
2022-12-11T04:42:33.564Z,-3.14
2022-12-11T04:44:59.968Z,-3.15
2022-12-11T04:47:26.372Z,-3.02
2022-12-11T04:49:52.866Z,-3.05
2022-12-11T04:52:19.396Z,-3.10
2022-12-11T04:54:45.898Z,-3.26
2022-12-11T04:57:12.349Z,-3.20
2022-12-11T04:59:38.886Z,-3.30
2022-12-11T05:02:05.423Z,-3.25
2022-12-11T05:04:33.702Z,-3.33
2022-12-11T05:07:01.171Z,-3.34
2022-12-11T05:09:27.778Z,-3.36
2022-12-11T05:11:54.511Z,-3.33
2022-12-11T05:14:21.691Z,-3.41
2022-12-11T05:16:48.489Z,-3.25
2022-12-11T05:19:15.112Z,-3.26
2022-12-11T05:21:41.680Z,-3.26
2022-12-11T05:24:08.374Z,-3.23
2022-12-11T05:26:34.927Z,-3.40
2022-12-11T05:29:01.354Z,-3.37
2022-12-11T05:31:28.184Z,-3.40
2022-12-11T05:33:54.812Z,-3.28
2022-12-11T05:36:27.042Z,-3.21
2022-12-11T05:38:54.154Z,-3.20
2022-12-11T05:41:22.944Z,-3.24
2022-12-11T05:43:49.372Z,-3.16
2022-12-11T05:46:22.573Z,-3.42
2022-12-11T05:48:51.942Z,-3.32
2022-12-11T05:51:19.434Z,-3.32
2022-12-11T05:53:47.568Z,-3.53
2022-12-11T05:56:19.593Z,-3.34
2022-12-11T05:58:47.633Z,-3.30
2022-12-11T06:01:18.492Z,-3.37
2022-12-11T06:03:45.007Z,-3.46
2022-12-11T06:06:12.079Z,-3.31
2022-12-11T06:08:38.738Z,-3.31
2022-12-11T06:11:06.968Z,-3.44
2022-12-11T06:13:33.937Z,-3.31
2022-12-11T06:16:06.220Z,-3.16
2022-12-11T06:18:39.275Z,-3.34
2022-12-11T06:21:29.939Z,-3.33
2022-12-11T06:23:59.979Z,-3.68
2022-12-11T06:26:27.372Z,-3.51
2022-12-11T06:28:53.844Z,-3.46
2022-12-11T06:31:20.776Z,-3.46
2022-12-11T06:33:47.582Z,-3.51
2022-12-11T06:36:16.884Z,-3.72
2022-12-11T06:38:43.854Z,-3.65
2022-12-11T06:41:10.701Z,-3.62
2022-12-11T06:43:40.081Z,-3.65
2022-12-11T06:46:12.079Z,-3.44
2022-12-11T06:48:38.965Z,-3.40
2022-12-11T06:51:10.380Z,-3.61
2022-12-11T06:53:36.932Z,-3.68
2022-12-11T06:56:12.625Z,-3.38
2022-12-11T06:58:40.340Z,-3.53
2022-12-11T07:01:16.202Z,-3.53
2022-12-11T07:03:42.787Z,-3.75
2022-12-11T07:06:09.632Z,-3.68
2022-12-11T07:08:36.557Z,-3.84
2022-12-11T07:11:08.885Z,-3.87
2022-12-11T07:13:35.598Z,-3.91
2022-12-11T07:16:04.548Z,-4.04
2022-12-11T07:18:32.889Z,-3.89
2022-12-11T07:21:00.428Z,-3.97
2022-12-11T07:23:28.385Z,-3.92
2022-12-11T07:25:55.484Z,-3.86
2022-12-11T07:28:22.614Z,-3.74
2022-12-11T07:30:49.143Z,-3.63
2022-12-11T07:33:16.060Z,-3.81
2022-12-11T07:35:42.642Z,-3.68
2022-12-11T07:38:09.099Z,-3.85
2022-12-11T07:40:35.547Z,-4.01
2022-12-11T07:43:01.958Z,-4.06
2022-12-11T07:45:28.525Z,-4.17
2022-12-11T07:47:55.019Z,-3.91
2022-12-11T07:50:21.494Z,-3.93
2022-12-11T07:52:47.917Z,-3.80
2022-12-11T07:55:14.567Z,-3.94
2022-12-11T07:57:40.989Z,-3.90
2022-12-11T08:00:07.878Z,-3.81
2022-12-11T08:02:37.417Z,-4.05
2022-12-11T08:05:04.794Z,-3.93
2022-12-11T08:07:31.207Z,-4.10
2022-12-11T08:09:57.693Z,-4.00
2022-12-11T08:12:24.235Z,-3.99
2022-12-11T08:14:50.662Z,-3.81
2022-12-11T08:17:17.108Z,-3.98
2022-12-11T08:19:43.562Z,-3.82
2022-12-11T08:22:10.053Z,-3.97
2022-12-11T08:24:36.488Z,-3.64
2022-12-11T08:27:03.017Z,-3.58
2022-12-11T08:29:29.539Z,-3.66
2022-12-11T08:31:56.040Z,-3.57
2022-12-11T08:34:22.504Z,-3.62
2022-12-11T08:36:48.921Z,-3.58
2022-12-11T08:39:15.367Z,-3.54
2022-12-11T08:41:42.165Z,-3.54
2022-12-11T08:44:16.266Z,-3.61
2022-12-11T08:46:44.025Z,-3.64
2022-12-11T08:49:10.534Z,-3.63
2022-12-11T08:51:37.023Z,-3.58
2022-12-11T08:54:03.631Z,-3.64
2022-12-11T08:56:30.491Z,-3.53
2022-12-11T08:59:00.890Z,-3.62
2022-12-11T09:01:28.566Z,-3.66
2022-12-11T09:03:56.571Z,-3.69
2022-12-11T09:06:25.454Z,-3.46
2022-12-11T09:08:53.513Z,-3.63
2022-12-11T09:11:24.007Z,-3.45
2022-12-11T09:13:50.988Z,-3.50
2022-12-11T09:16:20.376Z,-3.47
2022-12-11T09:21:24.798Z,-3.41
2022-12-11T09:24:10.773Z,-3.39
2022-12-11T09:26:38.489Z,-3.29
2022-12-11T09:29:05.907Z,-3.46
2022-12-11T09:31:35.864Z,-3.37
2022-12-11T09:34:05.835Z,-3.19
2022-12-11T09:36:32.420Z,-3.55
2022-12-11T09:39:04.020Z,-3.46
2022-12-11T09:41:55.134Z,-3.54
2022-12-11T09:44:34.425Z,-3.34
2022-12-11T09:47:01.335Z,-3.54
2022-12-11T09:49:36.885Z,-3.54
2022-12-11T09:52:12.577Z,-3.56
2022-12-11T09:54:51.263Z,-3.46
2022-12-11T09:57:48.221Z,-3.42
2022-12-11T10:00:31.500Z,-3.31
2022-12-11T10:03:11.097Z,-3.33
2022-12-11T10:05:52.657Z,-3.49
2022-12-11T10:08:28.267Z,-3.39
2022-12-11T10:11:20.870Z,-3.61
2022-12-11T10:14:18.907Z,-3.69
2022-12-11T10:16:49.197Z,-3.56
2022-12-11T10:19:30.571Z,-3.39
2022-12-11T10:21:58.934Z,-3.33
2022-12-11T10:27:31.291Z,-3.33
2022-12-11T10:30:21.729Z,-3.45
2022-12-11T10:32:53.005Z,-3.32
2022-12-11T10:35:28.880Z,-3.41
2022-12-11T10:38:01.734Z,-3.57
2022-12-11T10:40:30.748Z,-3.47
2022-12-11T10:42:57.221Z,-3.35
2022-12-11T10:45:23.665Z,-3.13
2022-12-11T10:47:50.089Z,-3.28
2022-12-11T10:50:25.926Z,-3.21
2022-12-11T10:52:53.382Z,-3.38
2022-12-11T10:55:27.403Z,-3.25
2022-12-11T10:57:59.716Z,-3.39
2022-12-11T11:00:40.982Z,-3.40
2022-12-11T11:03:27.790Z,-3.36
2022-12-11T11:06:04.871Z,-3.11
2022-12-11T11:08:40.418Z,-3.35
2022-12-11T11:11:08.965Z,-3.15
2022-12-11T11:13:35.805Z,-3.05
2022-12-11T11:16:09.744Z,-2.99
2022-12-11T11:18:36.438Z,-2.92
2022-12-11T11:21:03.739Z,-3.14
2022-12-11T11:23:30.293Z,-3.08
2022-12-11T11:25:59.908Z,-3.02
2022-12-11T11:28:29.996Z,-3.12
2022-12-11T11:31:06.319Z,-3.09
2022-12-11T11:33:35.418Z,-3.14
2022-12-11T11:36:05.188Z,-2.69
2022-12-11T11:38:50.570Z,-2.82
2022-12-11T11:41:20.006Z,-2.97
2022-12-11T11:43:59.440Z,-2.87
2022-12-11T11:46:36.600Z,-2.79
2022-12-11T11:49:25.782Z,-3.00
2022-12-11T11:52:37.737Z,-2.78
2022-12-11T11:55:23.454Z,-3.09
2022-12-11T11:57:57.158Z,-3.21
2022-12-11T12:00:31.913Z,-3.01
2022-12-11T12:03:10.180Z,-3.01
2022-12-11T12:05:49.074Z,-3.01
2022-12-11T12:08:51.011Z,-2.82
2022-12-11T12:11:17.362Z,-2.94
2022-12-11T12:14:51.041Z,-2.91
2022-12-11T12:17:26.328Z,-3.12
2022-12-11T12:20:04.558Z,-3.33
2022-12-11T12:22:38.948Z,-3.18
2022-12-11T12:25:26.902Z,-3.15
2022-12-11T12:28:06.228Z,-2.91
2022-12-11T12:30:44.658Z,-2.94
2022-12-11T12:33:38.315Z,-2.95
2022-12-11T12:36:33.168Z,-2.95
2022-12-11T12:39:01.413Z,-3.19
2022-12-11T12:41:46.428Z,-3.13
2022-12-11T12:44:17.076Z,-2.85
2022-12-11T12:46:46.506Z,-2.73
2022-12-11T12:49:18.411Z,-3.04
2022-12-11T12:51:45.918Z,-2.68
2022-12-11T12:54:17.727Z,-2.62
2022-12-11T12:56:47.053Z,-2.80
2022-12-11T12:59:24.746Z,-2.76
2022-12-11T13:01:57.063Z,-2.72
2022-12-11T13:04:54.949Z,-2.86
2022-12-11T13:07:27.279Z,-2.81
2022-12-11T13:10:08.512Z,-2.51
2022-12-11T13:12:46.494Z,-2.67
2022-12-11T13:15:43.735Z,-2.54
2022-12-11T13:18:34.806Z,-2.52
2022-12-11T13:21:03.267Z,-2.65
2022-12-11T13:23:32.283Z,-2.61
2022-12-11T13:26:01.590Z,-2.58
2022-12-11T13:28:48.140Z,-2.73
2022-12-11T13:31:14.655Z,-2.63
2022-12-11T13:33:48.895Z,-2.82
2022-12-11T13:36:24.104Z,-2.64
2022-12-11T13:38:56.287Z,-2.77
2022-12-11T13:41:23.702Z,-2.61
2022-12-11T13:43:51.349Z,-2.60
2022-12-11T13:46:31.304Z,-2.67
2022-12-11T13:49:02.840Z,-2.89
2022-12-11T13:51:32.159Z,-2.65
2022-12-11T13:54:06.179Z,-2.86
2022-12-11T13:56:33.132Z,-2.76
2022-12-11T13:58:59.558Z,-2.74
2022-12-11T14:01:34.919Z,-2.86
2022-12-11T14:04:09.359Z,-2.89
2022-12-11T14:06:38.337Z,-2.71
2022-12-11T14:09:06.754Z,-2.75
2022-12-11T14:11:37.281Z,-2.78
2022-12-11T14:14:08.594Z,-2.68
2022-12-11T14:16:35.108Z,-2.71
2022-12-11T14:19:07.259Z,-2.82
2022-12-11T14:21:34.454Z,-2.74
2022-12-11T14:24:06.584Z,-2.73
2022-12-11T14:26:35.284Z,-2.72
2022-12-11T14:29:02.791Z,-2.75
2022-12-11T14:31:35.291Z,-2.93
2022-12-11T14:34:12.140Z,-3.01
2022-12-11T14:36:41.317Z,-3.18
2022-12-11T14:39:17.017Z,-2.89
2022-12-11T14:41:53.169Z,-2.87
2022-12-11T14:44:23.994Z,-2.95
2022-12-11T14:46:56.750Z,-2.92
2022-12-11T14:49:32.027Z,-2.81
2022-12-11T14:51:59.138Z,-2.73
2022-12-11T14:54:31.797Z,-2.86
2022-12-11T14:57:00.063Z,-2.91
2022-12-11T14:59:32.019Z,-2.88
2022-12-11T15:02:01.373Z,-2.83
2022-12-11T15:04:32.033Z,-2.77
2022-12-11T15:06:59.467Z,-2.86
2022-12-11T15:09:33.833Z,-3.02
2022-12-11T15:12:11.197Z,-2.88
2022-12-11T15:14:48.594Z,-3.03
2022-12-11T15:17:15.513Z,-2.81
2022-12-11T15:19:48.422Z,-2.83
2022-12-11T15:22:17.355Z,-2.96
2022-12-11T15:24:47.097Z,-2.96
2022-12-11T15:27:39.541Z,-2.83
2022-12-11T15:30:18.054Z,-2.81
2022-12-11T15:32:44.556Z,-2.79
2022-12-11T15:35:27.284Z,-3.08
2022-12-11T15:37:55.828Z,-2.80
2022-12-11T15:40:23.180Z,-2.78
2022-12-11T15:42:50.828Z,-2.76
2022-12-11T15:45:30.859Z,-2.84
2022-12-11T15:47:59.401Z,-2.83
2022-12-11T15:50:30.303Z,-2.85
2022-12-11T15:52:57.374Z,-2.86
2022-12-11T15:55:26.535Z,-2.84
2022-12-11T15:57:59.551Z,-2.90
2022-12-11T16:00:28.030Z,-2.81
2022-12-11T16:02:55.641Z,-2.72
2022-12-11T16:05:22.424Z,-2.93
2022-12-11T16:07:52.208Z,-2.73
2022-12-11T16:10:20.080Z,-2.78
2022-12-11T16:12:46.587Z,-2.83
2022-12-11T16:15:18.712Z,-2.81
2022-12-11T16:17:48.354Z,-2.84
2022-12-11T16:20:15.281Z,-2.89
2022-12-11T16:22:41.696Z,-2.77
2022-12-11T16:25:08.325Z,-2.83
2022-12-11T16:27:34.928Z,-2.80
2022-12-11T16:30:01.366Z,-2.74
2022-12-11T16:32:27.783Z,-2.85
2022-12-11T16:34:54.347Z,-2.93
2022-12-11T16:37:20.894Z,-3.12
2022-12-11T16:39:47.373Z,-2.97
2022-12-11T16:42:13.830Z,-2.83
2022-12-11T16:44:44.002Z,-2.75
2022-12-11T16:47:10.826Z,-2.71
2022-12-11T16:49:37.249Z,-2.76
2022-12-11T16:52:03.810Z,-2.71
2022-12-11T16:54:30.266Z,-2.75
2022-12-11T16:56:56.669Z,-2.81
2022-12-11T16:59:23.193Z,-2.91
2022-12-11T17:01:50.672Z,-2.79
2022-12-11T17:04:17.469Z,-2.69
2022-12-11T17:06:43.947Z,-2.68
2022-12-11T17:09:11.303Z,-2.85
2022-12-11T17:11:37.785Z,-2.73
2022-12-11T17:14:04.227Z,-2.76
2022-12-11T17:16:30.679Z,-2.78
2022-12-11T17:18:58.170Z,-2.87
2022-12-11T17:21:24.966Z,-2.73
2022-12-11T17:23:51.963Z,-2.81
2022-12-11T17:26:18.966Z,-2.70
2022-12-11T17:28:45.441Z,-2.77
2022-12-11T17:31:18.276Z,-2.67
2022-12-11T17:33:46.724Z,-2.70
2022-12-11T17:36:15.704Z,-2.85
2022-12-11T17:38:42.301Z,-2.78
2022-12-11T17:41:14.247Z,-2.70
2022-12-11T17:43:44.925Z,-2.78
2022-12-11T17:46:14.079Z,-2.65
2022-12-11T17:48:40.856Z,-2.76
2022-12-11T17:51:09.519Z,-2.85
2022-12-11T17:53:36.436Z,-2.80
2022-12-11T17:56:05.311Z,-2.61
2022-12-11T17:58:32.118Z,-2.67
2022-12-11T18:00:59.349Z,-2.74
2022-12-11T18:03:27.339Z,-2.84
2022-12-11T18:05:56.402Z,-2.86
2022-12-11T18:08:31.517Z,-2.81
2022-12-11T18:11:08.349Z,-2.81
2022-12-11T18:13:35.221Z,-2.76
2022-12-11T18:16:04.696Z,-2.94
2022-12-11T18:18:31.641Z,-2.93
2022-12-11T18:20:58.758Z,-2.95
2022-12-11T18:23:25.669Z,-2.90
2022-12-11T18:25:52.655Z,-2.80
2022-12-11T18:28:19.156Z,-2.83
2022-12-11T18:30:45.800Z,-2.93
2022-12-11T18:33:13.106Z,-2.91
2022-12-11T18:35:41.223Z,-2.94
2022-12-11T18:38:07.697Z,-2.86
2022-12-11T18:40:34.314Z,-2.98
2022-12-11T18:43:00.747Z,-2.93
2022-12-11T18:45:27.206Z,-2.91
2022-12-11T18:47:55.739Z,-2.89
2022-12-11T18:50:22.268Z,-2.90
2022-12-11T18:52:52.915Z,-2.85
2022-12-11T18:55:19.393Z,-2.94
2022-12-11T18:57:45.882Z,-2.90
2022-12-11T19:00:13.165Z,-2.88
2022-12-11T19:02:39.682Z,-3.00
2022-12-11T19:05:06.244Z,-3.04
2022-12-11T19:07:32.733Z,-2.97
2022-12-11T19:09:59.218Z,-3.01
2022-12-11T19:12:25.656Z,-2.77
2022-12-11T19:14:52.119Z,-2.92
2022-12-11T19:17:18.573Z,-2.95
2022-12-11T19:19:46.183Z,-2.93
2022-12-11T19:22:13.150Z,-3.00
2022-12-11T19:24:39.597Z,-2.93
2022-12-11T19:27:11.637Z,-2.91
2022-12-11T19:29:39.789Z,-2.95
2022-12-11T19:32:06.251Z,-2.95
2022-12-11T19:34:32.719Z,-2.95
2022-12-11T19:36:59.245Z,-3.03
2022-12-11T19:39:25.922Z,-2.97
2022-12-11T19:41:52.359Z,-2.97
2022-12-11T19:44:18.833Z,-3.22
2022-12-11T19:46:45.320Z,-3.02
2022-12-11T19:49:12.456Z,-3.13
2022-12-11T19:51:41.089Z,-3.00
2022-12-11T19:54:09.270Z,-3.23
2022-12-11T19:56:35.800Z,-3.10
2022-12-11T19:59:05.123Z,-3.16
2022-12-11T20:01:33.469Z,-3.11
2022-12-11T20:04:02.398Z,-2.90
2022-12-11T20:06:31.450Z,-3.08
2022-12-11T20:08:58.605Z,-2.97
2022-12-11T20:11:25.261Z,-2.99
2022-12-11T20:13:52.198Z,-2.92
2022-12-11T20:16:33.310Z,-2.98
2022-12-11T20:19:06.254Z,-3.11
2022-12-11T20:21:32.723Z,-2.98
2022-12-11T20:23:59.460Z,-3.04
2022-12-11T20:26:25.939Z,-3.23
2022-12-11T20:28:53.215Z,-3.14
2022-12-11T20:31:24.975Z,-3.14
2022-12-11T20:33:53.033Z,-3.12
2022-12-11T20:36:21.501Z,-2.97
2022-12-11T20:38:48.875Z,-2.96
2022-12-11T20:41:19.037Z,-3.20
2022-12-11T20:43:45.854Z,-2.89
2022-12-11T20:46:14.649Z,-3.35
2022-12-11T20:48:43.468Z,-2.95
2022-12-11T20:51:11.833Z,-3.07
2022-12-11T20:53:38.895Z,-3.15
2022-12-11T20:56:19.860Z,-2.99
2022-12-11T20:58:46.627Z,-2.99
2022-12-11T21:01:23.983Z,-2.98
2022-12-11T21:03:52.622Z,-3.07
2022-12-11T21:06:19.007Z,-2.96
2022-12-11T21:08:45.491Z,-2.91
2022-12-11T21:11:12.456Z,-2.87
2022-12-11T21:13:38.900Z,-2.86
2022-12-11T21:16:07.308Z,-2.94
2022-12-11T21:18:34.999Z,-3.02
2022-12-11T21:21:01.420Z,-2.89
2022-12-11T21:23:28.094Z,-2.80
2022-12-11T21:25:54.555Z,-2.89
2022-12-11T21:28:21.192Z,-2.91
2022-12-11T21:30:47.689Z,-2.79
2022-12-11T21:33:14.293Z,-2.92
2022-12-11T21:35:40.775Z,-2.87
2022-12-11T21:38:07.199Z,-2.85
2022-12-11T21:40:33.890Z,-2.75
2022-12-11T21:43:00.335Z,-2.82
2022-12-11T21:45:59.313Z,-2.86
2022-12-11T21:48:13.566Z,-2.97
2022-12-11T21:50:40.844Z,-2.81
2022-12-11T21:53:07.258Z,-2.84
2022-12-11T21:55:33.666Z,-2.83
2022-12-11T21:58:00.087Z,-2.78
2022-12-11T22:00:28.167Z,-2.81
2022-12-11T22:02:54.706Z,-2.81
2022-12-11T22:05:21.233Z,-3.04
2022-12-11T22:07:47.768Z,-3.10
2022-12-11T22:10:14.274Z,-3.05
2022-12-11T22:12:40.726Z,-3.01
2022-12-11T22:15:08.013Z,-3.20
2022-12-11T22:17:36.220Z,-3.19
2022-12-11T22:20:05.140Z,-3.16
2022-12-11T22:22:31.688Z,-3.17
2022-12-11T22:24:58.166Z,-3.17
2022-12-11T22:27:24.579Z,-3.29
2022-12-11T22:29:51.011Z,-3.19
2022-12-11T22:32:17.504Z,-3.20
2022-12-11T22:34:43.959Z,-3.14
2022-12-11T22:37:10.444Z,-3.15
2022-12-11T22:39:36.855Z,-3.15
2022-12-11T22:42:03.445Z,-3.18
2022-12-11T22:44:29.863Z,-3.20
2022-12-11T22:46:57.345Z,-3.09
2022-12-11T22:49:23.787Z,-3.15
2022-12-11T22:51:50.349Z,-3.26
2022-12-11T22:54:16.769Z,-3.28
2022-12-11T22:56:43.330Z,-3.16
2022-12-11T22:59:09.830Z,-3.14
2022-12-11T23:01:36.318Z,-3.22
2022-12-11T23:04:02.820Z,-3.30
2022-12-11T23:06:29.386Z,-3.36
2022-12-11T23:09:00.278Z,-3.20
2022-12-11T23:11:30.491Z,-3.19
2022-12-11T23:13:57.468Z,-3.03
2022-12-11T23:16:25.843Z,-3.23
2022-12-11T23:18:53.369Z,-3.13
2022-12-11T23:21:21.652Z,-3.03
2022-12-11T23:23:48.679Z,-2.96
2022-12-11T23:26:18.846Z,-3.05
2022-12-11T23:28:45.921Z,-3.12
2022-12-11T23:31:12.576Z,-3.10
2022-12-11T23:33:39.378Z,-2.97
2022-12-11T23:36:06.122Z,-2.93
2022-12-11T23:38:32.634Z,-2.97
2022-12-11T23:41:01.308Z,-2.82
2022-12-11T23:43:27.818Z,-2.84
2022-12-11T23:45:54.488Z,-2.85
2022-12-11T23:48:21.013Z,-2.81
2022-12-11T23:50:48.112Z,-2.82
2022-12-11T23:53:15.451Z,-2.93
2022-12-11T23:55:44.296Z,-2.88
2022-12-11T23:58:10.879Z,-2.99
